sensor_id;sensor_type;location;lat;lon;timestamp;pressure;altitude;pressure_sealevel;temperature;humidity
57606;BME280;43430;48.204;11.556;2023-02-15T00:01:28;97468.69;;;-2.11;100.00
57606;BME280;43430;48.204;11.556;2023-02-15T00:03:53;97459.28;;;-2.12;100.00
57606;BME280;43430;48.204;11.556;2023-02-15T00:06:19;97463.84;;;-2.28;100.00
57606;BME280;43430;48.204;11.556;2023-02-15T00:08:44;97458.81;;;-2.30;100.00
57606;BME280;43430;48.204;11.556;2023-02-15T00:11:11;97459.91;;;-2.21;100.00
57606;BME280;43430;48.204;11.556;2023-02-15T00:13:37;97455.97;;;-2.14;100.00
57606;BME280;43430;48.204;11.556;2023-02-15T00:16:10;97458.66;;;-2.03;100.00
57606;BME280;43430;48.204;11.556;2023-02-15T00:18:36;97460.75;;;-2.21;100.00
57606;BME280;43430;48.204;11.556;2023-02-15T00:21:07;97457.25;;;-2.32;100.00
57606;BME280;43430;48.204;11.556;2023-02-15T00:23:34;97448.34;;;-2.28;100.00
57606;BME280;43430;48.204;11.556;2023-02-15T00:26:10;97452.56;;;-2.27;100.00
57606;BME280;43430;48.204;11.556;2023-02-15T00:28:36;97445.78;;;-2.28;100.00
57606;BME280;43430;48.204;11.556;2023-02-15T00:31:04;97450.72;;;-2.38;100.00
57606;BME280;43430;48.204;11.556;2023-02-15T00:33:29;97445.56;;;-2.38;100.00
57606;BME280;43430;48.204;11.556;2023-02-15T00:35:59;97448.56;;;-2.31;100.00
57606;BME280;43430;48.204;11.556;2023-02-15T00:38:25;97453.09;;;-2.22;100.00
57606;BME280;43430;48.204;11.556;2023-02-15T00:40:55;97453.09;;;-2.22;100.00
57606;BME280;43430;48.204;11.556;2023-02-15T00:43:21;97450.72;;;-2.12;100.00
57606;BME280;43430;48.204;11.556;2023-02-15T00:45:46;97448.34;;;-2.16;100.00
57606;BME280;43430;48.204;11.556;2023-02-15T00:48:12;97445.88;;;-2.30;100.00
57606;BME280;43430;48.204;11.556;2023-02-15T00:50:37;97449.72;;;-2.48;100.00
57606;BME280;43430;48.204;11.556;2023-02-15T00:53:03;97440.09;;;-2.59;100.00
57606;BME280;43430;48.204;11.556;2023-02-15T00:55:28;97434.31;;;-2.50;100.00
57606;BME280;43430;48.204;11.556;2023-02-15T00:57:53;97435.47;;;-2.54;100.00
57606;BME280;43430;48.204;11.556;2023-02-15T01:00:19;97434.31;;;-2.50;100.00
57606;BME280;43430;48.204;11.556;2023-02-15T01:02:44;97431.84;;;-2.51;100.00
57606;BME280;43430;48.204;11.556;2023-02-15T01:05:09;97427.09;;;-2.45;100.00
57606;BME280;43430;48.204;11.556;2023-02-15T01:07:35;97429.91;;;-2.48;100.00
57606;BME280;43430;48.204;11.556;2023-02-15T01:10:00;97427.00;;;-2.56;100.00
57606;BME280;43430;48.204;11.556;2023-02-15T01:12:25;97419.16;;;-2.67;100.00
57606;BME280;43430;48.204;11.556;2023-02-15T01:14:51;97417.19;;;-2.64;100.00
57606;BME280;43430;48.204;11.556;2023-02-15T01:17:16;97409.78;;;-2.68;100.00
57606;BME280;43430;48.204;11.556;2023-02-15T01:19:42;97416.97;;;-2.73;100.00
57606;BME280;43430;48.204;11.556;2023-02-15T01:22:07;97409.25;;;-2.73;100.00
57606;BME280;43430;48.204;11.556;2023-02-15T01:24:32;97402.72;;;-2.66;100.00
57606;BME280;43430;48.204;11.556;2023-02-15T01:26:58;97403.06;;;-2.58;100.00
57606;BME280;43430;48.204;11.556;2023-02-15T01:29:23;97404.38;;;-2.65;100.00
57606;BME280;43430;48.204;11.556;2023-02-15T01:31:49;97394.78;;;-2.63;100.00
57606;BME280;43430;48.204;11.556;2023-02-15T01:34:14;97407.16;;;-2.43;100.00
57606;BME280;43430;48.204;11.556;2023-02-15T01:36:39;97400.75;;;-2.63;100.00
57606;BME280;43430;48.204;11.556;2023-02-15T01:39:05;97397.56;;;-2.66;100.00
57606;BME280;43430;48.204;11.556;2023-02-15T01:41:30;97390.97;;;-2.70;100.00
57606;BME280;43430;48.204;11.556;2023-02-15T01:44:00;97392.50;;;-2.80;100.00
57606;BME280;43430;48.204;11.556;2023-02-15T01:49:03;97388.19;;;-2.67;100.00
57606;BME280;43430;48.204;11.556;2023-02-15T01:51:31;97387.22;;;-2.66;100.00
57606;BME280;43430;48.204;11.556;2023-02-15T01:54:02;97384.03;;;-2.70;100.00
57606;BME280;43430;48.204;11.556;2023-02-15T01:56:33;97380.97;;;-2.75;100.00
57606;BME280;43430;48.204;11.556;2023-02-15T01:59:03;97387.34;;;-2.68;100.00
57606;BME280;43430;48.204;11.556;2023-02-15T02:01:31;97382.00;;;-2.77;100.00
57606;BME280;43430;48.204;11.556;2023-02-15T02:06:32;97381.38;;;-2.68;100.00
57606;BME280;43430;48.204;11.556;2023-02-15T02:08:58;97369.28;;;-2.68;100.00
57606;BME280;43430;48.204;11.556;2023-02-15T02:11:24;97376.50;;;-2.73;100.00
57606;BME280;43430;48.204;11.556;2023-02-15T02:13:51;97373.72;;;-2.82;100.00
57606;BME280;43430;48.204;11.556;2023-02-15T02:22:05;97367.03;;;-2.85;100.00
57606;BME280;43430;48.204;11.556;2023-02-15T02:27:30;97370.09;;;-2.80;100.00
57606;BME280;43430;48.204;11.556;2023-02-15T02:30:26;97365.47;;;-2.88;100.00
57606;BME280;43430;48.204;11.556;2023-02-15T02:41:36;97368.66;;;-2.84;100.00
57606;BME280;43430;48.204;11.556;2023-02-15T02:44:43;97364.94;;;-2.80;100.00
57606;BME280;43430;48.204;11.556;2023-02-15T02:47:23;97358.75;;;-2.77;100.00
57606;BME280;43430;48.204;11.556;2023-02-15T02:49:52;97368.06;;;-2.75;100.00
57606;BME280;43430;48.204;11.556;2023-02-15T02:52:42;97363.91;;;-2.77;100.00
57606;BME280;43430;48.204;11.556;2023-02-15T02:55:16;97354.63;;;-2.80;100.00
57606;BME280;43430;48.204;11.556;2023-02-15T02:57:53;97356.50;;;-2.82;100.00
57606;BME280;43430;48.204;11.556;2023-02-15T03:00:21;97358.22;;;-2.82;100.00
57606;BME280;43430;48.204;11.556;2023-02-15T03:02:50;97356.16;;;-2.90;100.00
57606;BME280;43430;48.204;11.556;2023-02-15T03:05:21;97357.94;;;-2.91;100.00
57606;BME280;43430;48.204;11.556;2023-02-15T03:07:51;97358.13;;;-2.94;100.00
57606;BME280;43430;48.204;11.556;2023-02-15T03:10:21;97360.63;;;-2.92;100.00
57606;BME280;43430;48.204;11.556;2023-02-15T03:12:47;97354.63;;;-2.93;100.00
57606;BME280;43430;48.204;11.556;2023-02-15T03:15:20;97352.38;;;-2.84;100.00
57606;BME280;43430;48.204;11.556;2023-02-15T03:17:49;97358.75;;;-2.77;100.00
57606;BME280;43430;48.204;11.556;2023-02-15T03:20:24;97362.28;;;-2.78;100.00
57606;BME280;43430;48.204;11.556;2023-02-15T03:23:00;97354.94;;;-2.72;100.00
57606;BME280;43430;48.204;11.556;2023-02-15T03:25:32;97345.94;;;-2.79;100.00
57606;BME280;43430;48.204;11.556;2023-02-15T03:28:04;97354.53;;;-2.78;100.00
57606;BME280;43430;48.204;11.556;2023-02-15T03:30:31;97349.66;;;-2.70;100.00
57606;BME280;43430;48.204;11.556;2023-02-15T03:32:59;97352.16;;;-2.81;100.00
57606;BME280;43430;48.204;11.556;2023-02-15T03:35:36;97353.19;;;-2.97;100.00
57606;BME280;43430;48.204;11.556;2023-02-15T03:38:06;97348.22;;;-2.87;100.00
57606;BME280;43430;48.204;11.556;2023-02-15T03:40:42;97352.78;;;-2.91;100.00
57606;BME280;43430;48.204;11.556;2023-02-15T03:43:53;97357.50;;;-3.10;100.00
57606;BME280;43430;48.204;11.556;2023-02-15T03:49:36;97362.06;;;-2.88;100.00
57606;BME280;43430;48.204;11.556;2023-02-15T03:52:05;97362.25;;;-3.04;100.00
57606;BME280;43430;48.204;11.556;2023-02-15T03:54:33;97355.22;;;-2.89;100.00
57606;BME280;43430;48.204;11.556;2023-02-15T04:00:05;97355.44;;;-2.79;100.00
57606;BME280;43430;48.204;11.556;2023-02-15T04:03:59;97349.44;;;-2.67;100.00
57606;BME280;43430;48.204;11.556;2023-02-15T04:05:53;97348.31;;;-2.76;100.00
57606;BME280;43430;48.204;11.556;2023-02-15T04:08:18;97347.41;;;-2.75;100.00
57606;BME280;43430;48.204;11.556;2023-02-15T04:10:44;97350.28;;;-2.67;100.00
57606;BME280;43430;48.204;11.556;2023-02-15T04:13:22;97346.88;;;-2.67;100.00
57606;BME280;43430;48.204;11.556;2023-02-15T04:15:47;97346.13;;;-2.69;100.00
57606;BME280;43430;48.204;11.556;2023-02-15T04:18:39;97348.00;;;-2.71;100.00
57606;BME280;43430;48.204;11.556;2023-02-15T04:21:25;97349.25;;;-2.77;100.00
57606;BME280;43430;48.204;11.556;2023-02-15T04:24:10;97358.97;;;-2.80;100.00
57606;BME280;43430;48.204;11.556;2023-02-15T04:26:54;97354.53;;;-2.78;100.00
57606;BME280;43430;48.204;11.556;2023-02-15T04:29:22;97352.78;;;-2.78;100.00
57606;BME280;43430;48.204;11.556;2023-02-15T04:31:47;97362.16;;;-2.77;100.00
57606;BME280;43430;48.204;11.556;2023-02-15T04:34:13;97359.38;;;-2.87;100.00
57606;BME280;43430;48.204;11.556;2023-02-15T04:36:39;97363.72;;;-2.74;100.00
57606;BME280;43430;48.204;11.556;2023-02-15T04:39:06;97358.84;;;-2.66;100.00
57606;BME280;43430;48.204;11.556;2023-02-15T04:41:31;97357.59;;;-2.73;100.00
57606;BME280;43430;48.204;11.556;2023-02-15T04:43:57;97358.66;;;-2.89;100.00
57606;BME280;43430;48.204;11.556;2023-02-15T04:46:23;97359.69;;;-2.91;100.00
57606;BME280;43430;48.204;11.556;2023-02-15T04:48:48;97355.69;;;-2.95;100.00
57606;BME280;43430;48.204;11.556;2023-02-15T04:51:14;97355.06;;;-2.99;100.00
57606;BME280;43430;48.204;11.556;2023-02-15T04:53:39;97352.06;;;-3.05;100.00
57606;BME280;43430;48.204;11.556;2023-02-15T04:56:04;97349.97;;;-3.00;100.00
57606;BME280;43430;48.204;11.556;2023-02-15T04:58:30;97351.00;;;-3.03;100.00
57606;BME280;43430;48.204;11.556;2023-02-15T05:00:55;97357.94;;;-3.16;100.00
57606;BME280;43430;48.204;11.556;2023-02-15T05:03:21;97353.28;;;-3.11;100.00
57606;BME280;43430;48.204;11.556;2023-02-15T05:05:47;97355.16;;;-3.26;100.00
57606;BME280;43430;48.204;11.556;2023-02-15T05:08:12;97358.97;;;-3.19;100.00
57606;BME280;43430;48.204;11.556;2023-02-15T05:10:37;97361.22;;;-3.14;100.00
57606;BME280;43430;48.204;11.556;2023-02-15T05:13:03;97357.00;;;-3.15;100.00
57606;BME280;43430;48.204;11.556;2023-02-15T05:15:28;97353.09;;;-2.95;100.00
57606;BME280;43430;48.204;11.556;2023-02-15T05:17:53;97358.03;;;-2.79;100.00
57606;BME280;43430;48.204;11.556;2023-02-15T05:20:19;97363.91;;;-2.77;100.00
57606;BME280;43430;48.204;11.556;2023-02-15T05:22:44;97361.44;;;-2.92;100.00
57606;BME280;43430;48.204;11.556;2023-02-15T05:25:10;97350.31;;;-2.92;100.00
57606;BME280;43430;48.204;11.556;2023-02-15T05:27:53;97354.00;;;-2.83;100.00
57606;BME280;43430;48.204;11.556;2023-02-15T05:30:38;97363.09;;;-2.91;100.00
57606;BME280;43430;48.204;11.556;2023-02-15T05:33:05;97365.75;;;-2.79;100.00
57606;BME280;43430;48.204;11.556;2023-02-15T05:35:31;97367.13;;;-2.87;100.00
57606;BME280;43430;48.204;11.556;2023-02-15T05:37:57;97370.63;;;-2.88;100.00
57606;BME280;43430;48.204;11.556;2023-02-15T05:40:23;97366.41;;;-2.89;100.00
57606;BME280;43430;48.204;11.556;2023-02-15T05:42:48;97365.38;;;-2.99;100.00
57606;BME280;43430;48.204;11.556;2023-02-15T05:45:13;97366.69;;;-2.93;100.00
57606;BME280;43430;48.204;11.556;2023-02-15T05:47:40;97365.34;;;-2.73;100.00
57606;BME280;43430;48.204;11.556;2023-02-15T05:50:06;97363.31;;;-2.94;100.00
57606;BME280;43430;48.204;11.556;2023-02-15T05:52:31;97356.69;;;-2.85;100.00
57606;BME280;43430;48.204;11.556;2023-02-15T05:54:57;97355.75;;;-2.84;100.00
57606;BME280;43430;48.204;11.556;2023-02-15T05:57:24;97361.44;;;-2.79;100.00
57606;BME280;43430;48.204;11.556;2023-02-15T05:59:49;97357.47;;;-2.59;100.00
57606;BME280;43430;48.204;11.556;2023-02-15T06:02:14;97361.00;;;-2.47;100.00
57606;BME280;43430;48.204;11.556;2023-02-15T06:04:40;97368.19;;;-2.40;100.00
57606;BME280;43430;48.204;11.556;2023-02-15T06:07:05;97362.00;;;-2.37;100.00
57606;BME280;43430;48.204;11.556;2023-02-15T06:09:30;97371.72;;;-2.41;100.00
57606;BME280;43430;48.204;11.556;2023-02-15T06:11:56;97367.91;;;-2.48;100.00
57606;BME280;43430;48.204;11.556;2023-02-15T06:14:21;97366.16;;;-2.47;100.00
57606;BME280;43430;48.204;11.556;2023-02-15T06:16:46;97366.97;;;-2.47;100.00
57606;BME280;43430;48.204;11.556;2023-02-15T06:19:12;97366.03;;;-2.46;100.00
57606;BME280;43430;48.204;11.556;2023-02-15T06:21:37;97367.47;;;-2.42;100.00
57606;BME280;43430;48.204;11.556;2023-02-15T06:24:02;97371.72;;;-2.41;100.00
57606;BME280;43430;48.204;11.556;2023-02-15T06:26:28;97376.16;;;-2.43;100.00
57606;BME280;43430;48.204;11.556;2023-02-15T06:28:53;97376.78;;;-2.39;100.00
57606;BME280;43430;48.204;11.556;2023-02-15T06:31:18;97380.28;;;-2.40;100.00
57606;BME280;43430;48.204;11.556;2023-02-15T06:33:44;97376.03;;;-2.41;100.00
57606;BME280;43430;48.204;11.556;2023-02-15T06:36:09;97379.34;;;-2.39;100.00
57606;BME280;43430;48.204;11.556;2023-02-15T06:38:35;97380.91;;;-2.36;100.00
57606;BME280;43430;48.204;11.556;2023-02-15T06:41:00;97384.19;;;-2.34;100.00
57606;BME280;43430;48.204;11.556;2023-02-15T06:43:25;97382.34;;;-2.32;100.00
57606;BME280;43430;48.204;11.556;2023-02-15T06:45:51;97383.16;;;-2.32;100.00
57606;BME280;43430;48.204;11.556;2023-02-15T06:48:16;97390.56;;;-2.27;100.00
57606;BME280;43430;48.204;11.556;2023-02-15T06:50:42;97384.97;;;-2.21;100.00
57606;BME280;43430;48.204;11.556;2023-02-15T06:53:07;97383.44;;;-2.24;100.00
57606;BME280;43430;48.204;11.556;2023-02-15T06:55:33;97383.34;;;-2.22;100.00
57606;BME280;43430;48.204;11.556;2023-02-15T06:57:58;97384.78;;;-2.18;100.00
57606;BME280;43430;48.204;11.556;2023-02-15T07:00:24;97379.41;;;-2.15;100.00
57606;BME280;43430;48.204;11.556;2023-02-15T07:02:57;97383.44;;;-2.24;100.00
57606;BME280;43430;48.204;11.556;2023-02-15T07:05:24;97383.63;;;-2.14;100.00
57606;BME280;43430;48.204;11.556;2023-02-15T07:07:55;97386.75;;;-2.22;100.00
57606;BME280;43430;48.204;11.556;2023-02-15T07:10:21;97390.56;;;-2.15;100.00
57606;BME280;43430;48.204;11.556;2023-02-15T07:12:46;97376.81;;;-2.15;100.00
57606;BME280;43430;48.204;11.556;2023-02-15T07:15:16;97378.44;;;-2.14;100.00
57606;BME280;43430;48.204;11.556;2023-02-15T07:17:43;97385.28;;;-2.13;100.00
57606;BME280;43430;48.204;11.556;2023-02-15T07:20:11;97389.00;;;-2.17;100.00
57606;BME280;43430;48.204;11.556;2023-02-15T07:22:37;97386.38;;;-2.04;100.00
57606;BME280;43430;48.204;11.556;2023-02-15T07:25:03;97384.03;;;-2.07;100.00
57606;BME280;43430;48.204;11.556;2023-02-15T07:27:30;97386.59;;;-2.07;100.00
57606;BME280;43430;48.204;11.556;2023-02-15T07:29:55;97383.72;;;-2.03;100.00
57606;BME280;43430;48.204;11.556;2023-02-15T07:32:21;97382.56;;;-1.99;100.00
57606;BME280;43430;48.204;11.556;2023-02-15T07:34:46;97383.03;;;-1.94;100.00
57606;BME280;43430;48.204;11.556;2023-02-15T07:37:11;97382.00;;;-1.91;100.00
57606;BME280;43430;48.204;11.556;2023-02-15T07:39:37;97377.88;;;-1.94;100.00
57606;BME280;43430;48.204;11.556;2023-02-15T07:42:02;97377.56;;;-1.89;100.00
57606;BME280;43430;48.204;11.556;2023-02-15T07:44:28;97371.78;;;-1.93;100.00
57606;BME280;43430;48.204;11.556;2023-02-15T07:46:53;97374.50;;;-1.83;100.00
57606;BME280;43430;48.204;11.556;2023-02-15T07:49:19;97374.63;;;-1.84;100.00
57606;BME280;43430;48.204;11.556;2023-02-15T07:51:44;97374.28;;;-1.80;100.00
57606;BME280;43430;48.204;11.556;2023-02-15T07:54:10;97367.97;;;-1.76;100.00
57606;BME280;43430;48.204;11.556;2023-02-15T07:56:36;97368.69;;;-1.74;100.00
57606;BME280;43430;48.204;11.556;2023-02-15T07:59:01;97369.28;;;-1.70;100.00
57606;BME280;43430;48.204;11.556;2023-02-15T08:01:33;97369.41;;;-1.72;100.00
57606;BME280;43430;48.204;11.556;2023-02-15T08:04:00;97365.44;;;-1.64;100.00
57606;BME280;43430;48.204;11.556;2023-02-15T08:06:28;97364.16;;;-1.59;100.00
57606;BME280;43430;48.204;11.556;2023-02-15T08:08:53;97359.59;;;-1.55;100.00
57606;BME280;43430;48.204;11.556;2023-02-15T08:16:47;97361.84;;;-1.51;100.00
57606;BME280;43430;48.204;11.556;2023-02-15T08:19:23;97365.97;;;-1.48;100.00
57606;BME280;43430;48.204;11.556;2023-02-15T08:21:57;97361.38;;;-1.45;100.00
57606;BME280;43430;48.204;11.556;2023-02-15T08:24:24;97360.34;;;-1.42;100.00
57606;BME280;43430;48.204;11.556;2023-02-15T08:26:51;97355.53;;;-1.35;100.00
57606;BME280;43430;48.204;11.556;2023-02-15T08:29:21;97363.97;;;-1.45;100.00
57606;BME280;43430;48.204;11.556;2023-02-15T08:31:48;97359.53;;;-1.42;100.00
57606;BME280;43430;48.204;11.556;2023-02-15T08:34:17;97358.34;;;-1.38;100.00
57606;BME280;43430;48.204;11.556;2023-02-15T08:36:43;97360.72;;;-1.35;100.00
57606;BME280;43430;48.204;11.556;2023-02-15T08:39:10;97355.09;;;-1.29;100.00
57606;BME280;43430;48.204;11.556;2023-02-15T08:41:37;97357.59;;;-1.16;100.00
57606;BME280;43430;48.204;11.556;2023-02-15T08:44:07;97353.47;;;-1.08;100.00
57606;BME280;43430;48.204;11.556;2023-02-15T08:46:36;97362.19;;;-1.09;100.00
57606;BME280;43430;48.204;11.556;2023-02-15T08:49:02;97363.63;;;-1.05;100.00
57606;BME280;43430;48.204;11.556;2023-02-15T08:51:30;97365.97;;;-0.90;100.00
57606;BME280;43430;48.204;11.556;2023-02-15T08:53:58;97364.78;;;-0.98;100.00
57606;BME280;43430;48.204;11.556;2023-02-15T08:56:29;97360.50;;;-1.32;100.00
57606;BME280;43430;48.204;11.556;2023-02-15T08:58:55;97362.25;;;-1.33;100.00
57606;BME280;43430;48.204;11.556;2023-02-15T09:01:23;97359.81;;;-1.23;100.00
57606;BME280;43430;48.204;11.556;2023-02-15T09:03:51;97358.44;;;-0.93;100.00
57606;BME280;43430;48.204;11.556;2023-02-15T09:06:20;97355.63;;;-0.90;100.00
57606;BME280;43430;48.204;11.556;2023-02-15T09:08:46;97363.88;;;-0.85;100.00
57606;BME280;43430;48.204;11.556;2023-02-15T09:11:14;97364.88;;;-1.10;100.00
57606;BME280;43430;48.204;11.556;2023-02-15T09:13:42;97364.34;;;-0.91;100.00
57606;BME280;43430;48.204;11.556;2023-02-15T09:16:09;97359.84;;;-1.01;100.00
57606;BME280;43430;48.204;11.556;2023-02-15T09:18:37;97360.56;;;-1.10;100.00
57606;BME280;43430;48.204;11.556;2023-02-15T09:21:07;97367.53;;;-0.77;100.00
57606;BME280;43430;48.204;11.556;2023-02-15T09:23:33;97355.88;;;-0.60;100.00
57606;BME280;43430;48.204;11.556;2023-02-15T09:26:07;97352.00;;;-0.65;100.00
57606;BME280;43430;48.204;11.556;2023-02-15T09:28:33;97355.88;;;-0.60;100.00
57606;BME280;43430;48.204;11.556;2023-02-15T09:31:13;97348.34;;;-0.52;100.00
57606;BME280;43430;48.204;11.556;2023-02-15T09:33:41;97351.53;;;-0.48;100.00
57606;BME280;43430;48.204;11.556;2023-02-15T09:38:44;97354.22;;;-0.50;100.00
57606;BME280;43430;48.204;11.556;2023-02-15T09:58:16;97357.53;;;-0.47;100.00
57606;BME280;43430;48.204;11.556;2023-02-15T10:14:33;97354.41;;;-0.08;100.00
57606;BME280;43430;48.204;11.556;2023-02-15T10:20:12;97351.22;;;0.00;100.00
57606;BME280;43430;48.204;11.556;2023-02-15T10:25:51;97352.72;;;0.14;100.00
57606;BME280;43430;48.204;11.556;2023-02-15T10:28:57;97343.88;;;0.05;100.00
57606;BME280;43430;48.204;11.556;2023-02-15T10:31:41;97340.59;;;0.03;100.00
57606;BME280;43430;48.204;11.556;2023-02-15T10:34:16;97341.88;;;0.09;100.00
57606;BME280;43430;48.204;11.556;2023-02-15T10:37:12;97344.50;;;-0.03;100.00
57606;BME280;43430;48.204;11.556;2023-02-15T10:48:16;97341.44;;;-0.08;100.00
57606;BME280;43430;48.204;11.556;2023-02-15T10:50:49;97336.72;;;-0.03;100.00
57606;BME280;43430;48.204;11.556;2023-02-15T10:56:27;97334.56;;;0.03;100.00
57606;BME280;43430;48.204;11.556;2023-02-15T11:06:51;97305.50;;;0.31;100.00
57606;BME280;43430;48.204;11.556;2023-02-15T11:09:21;97309.84;;;0.52;100.00
57606;BME280;43430;48.204;11.556;2023-02-15T11:11:52;97301.78;;;0.66;100.00
57606;BME280;43430;48.204;11.556;2023-02-15T11:14:34;97301.56;;;0.58;100.00
57606;BME280;43430;48.204;11.556;2023-02-15T11:17:11;97288.84;;;0.55;100.00
57606;BME280;43430;48.204;11.556;2023-02-15T11:19:44;97287.91;;;0.35;100.00
57606;BME280;43430;48.204;11.556;2023-02-15T11:22:12;97282.50;;;0.68;100.00
57606;BME280;43430;48.204;11.556;2023-02-15T11:24:43;97285.88;;;0.80;100.00
57606;BME280;43430;48.204;11.556;2023-02-15T11:27:25;97281.34;;;0.82;100.00
57606;BME280;43430;48.204;11.556;2023-02-15T11:32:32;97256.97;;;0.94;100.00
57606;BME280;43430;48.204;11.556;2023-02-15T11:37:29;97257.06;;;1.14;100.00
57606;BME280;43430;48.204;11.556;2023-02-15T11:39:57;97250.06;;;1.14;100.00
57606;BME280;43430;48.204;11.556;2023-02-15T11:42:23;97248.81;;;1.09;100.00
57606;BME280;43430;48.204;11.556;2023-02-15T11:45:06;97243.22;;;1.04;100.00
57606;BME280;43430;48.204;11.556;2023-02-15T11:47:39;97243.22;;;1.13;100.00
57606;BME280;43430;48.204;11.556;2023-02-15T11:50:05;97233.38;;;1.17;100.00
57606;BME280;43430;48.204;11.556;2023-02-15T11:52:31;97232.84;;;1.23;100.00
57606;BME280;43430;48.204;11.556;2023-02-15T11:54:56;97226.06;;;1.32;100.00
57606;BME280;43430;48.204;11.556;2023-02-15T11:57:28;97228.91;;;1.29;100.00
57606;BME280;43430;48.204;11.556;2023-02-15T12:00:14;97220.63;;;1.45;100.00
57606;BME280;43430;48.204;11.556;2023-02-15T12:02:46;97220.09;;;1.60;100.00
57606;BME280;43430;48.204;11.556;2023-02-15T12:05:17;97213.38;;;1.48;100.00
57606;BME280;43430;48.204;11.556;2023-02-15T12:07:52;97216.53;;;1.52;100.00
57606;BME280;43430;48.204;11.556;2023-02-15T12:10:24;97206.56;;;1.66;100.00
57606;BME280;43430;48.204;11.556;2023-02-15T12:13:18;97201.09;;;1.70;100.00
57606;BME280;43430;48.204;11.556;2023-02-15T12:15:49;97203.41;;;1.82;100.00
57606;BME280;43430;48.204;11.556;2023-02-15T12:18:37;97202.72;;;1.80;100.00
57606;BME280;43430;48.204;11.556;2023-02-15T12:21:09;97197.09;;;1.75;100.00
57606;BME280;43430;48.204;11.556;2023-02-15T12:23:43;97198.06;;;1.74;100.00
57606;BME280;43430;48.204;11.556;2023-02-15T12:26:12;97193.56;;;1.76;100.00
57606;BME280;43430;48.204;11.556;2023-02-15T12:28:41;97189.59;;;1.72;100.00
57606;BME280;43430;48.204;11.556;2023-02-15T12:31:20;97180.84;;;1.73;100.00
57606;BME280;43430;48.204;11.556;2023-02-15T12:33:46;97178.50;;;1.80;100.00
57606;BME280;43430;48.204;11.556;2023-02-15T12:36:30;97171.91;;;1.95;100.00
57606;BME280;43430;48.204;11.556;2023-02-15T12:41:45;97157.94;;;2.16;100.00
57606;BME280;43430;48.204;11.556;2023-02-15T12:44:19;97161.06;;;2.19;100.00
57606;BME280;43430;48.204;11.556;2023-02-15T12:49:37;97160.06;;;2.40;100.00
57606;BME280;43430;48.204;11.556;2023-02-15T12:54:45;97154.75;;;2.41;100.00
57606;BME280;43430;48.204;11.556;2023-02-15T12:57:22;97149.88;;;2.56;100.00
57606;BME280;43430;48.204;11.556;2023-02-15T13:02:46;97132.28;;;2.68;100.00
57606;BME280;43430;48.204;11.556;2023-02-15T13:05:23;97125.78;;;2.81;100.00
57606;BME280;43430;48.204;11.556;2023-02-15T13:07:56;97128.00;;;2.76;100.00
57606;BME280;43430;48.204;11.556;2023-02-15T13:10:26;97123.28;;;2.90;100.00
57606;BME280;43430;48.204;11.556;2023-02-15T13:12:54;97124.19;;;2.98;100.00
57606;BME280;43430;48.204;11.556;2023-02-15T13:17:55;97126.97;;;2.97;100.00
57606;BME280;43430;48.204;11.556;2023-02-15T13:20:22;97123.03;;;3.11;100.00
57606;BME280;43430;48.204;11.556;2023-02-15T13:22:57;97114.25;;;3.12;100.00
57606;BME280;43430;48.204;11.556;2023-02-15T13:25:29;97108.50;;;3.08;100.00
57606;BME280;43430;48.204;11.556;2023-02-15T13:27:57;97101.72;;;2.97;100.00
57606;BME280;43430;48.204;11.556;2023-02-15T13:30:38;97104.09;;;2.91;100.00
57606;BME280;43430;48.204;11.556;2023-02-15T13:33:17;97095.28;;;2.92;100.00
57606;BME280;43430;48.204;11.556;2023-02-15T13:36:03;97090.03;;;3.01;100.00
57606;BME280;43430;48.204;11.556;2023-02-15T13:41:30;97088.47;;;3.08;100.00
57606;BME280;43430;48.204;11.556;2023-02-15T13:44:21;97098.84;;;3.18;100.00
57606;BME280;43430;48.204;11.556;2023-02-15T13:52:19;97095.34;;;3.45;100.00
57606;BME280;43430;48.204;11.556;2023-02-15T14:05:40;97109.94;;;3.20;100.00
57606;BME280;43430;48.204;11.556;2023-02-15T14:16:12;97099.44;;;3.12;100.00
57606;BME280;43430;48.204;11.556;2023-02-15T14:19:45;97099.88;;;3.07;100.00
57606;BME280;43430;48.204;11.556;2023-02-15T14:21:54;97093.63;;;3.18;100.00
57606;BME280;43430;48.204;11.556;2023-02-15T14:27:26;97082.16;;;3.11;100.00
57606;BME280;43430;48.204;11.556;2023-02-15T14:29:59;97084.47;;;3.14;100.00
57606;BME280;43430;48.204;11.556;2023-02-15T14:32:34;97081.28;;;3.20;100.00
57606;BME280;43430;48.204;11.556;2023-02-15T14:35:05;97079.03;;;3.25;100.00
57606;BME280;43430;48.204;11.556;2023-02-15T14:37:46;97072.72;;;3.28;100.00
57606;BME280;43430;48.204;11.556;2023-02-15T14:43:19;97074.81;;;3.24;100.00
57606;BME280;43430;48.204;11.556;2023-02-15T14:48:58;97085.41;;;3.13;100.00
57606;BME280;43430;48.204;11.556;2023-02-15T14:59:27;97081.94;;;3.04;100.00
57606;BME280;43430;48.204;11.556;2023-02-15T15:04:35;97080.84;;;2.79;100.00
57606;BME280;43430;48.204;11.556;2023-02-15T15:07:25;97077.75;;;2.66;100.00
57606;BME280;43430;48.204;11.556;2023-02-15T15:15:32;97083.03;;;2.47;100.00
57606;BME280;43430;48.204;11.556;2023-02-15T15:18:07;97090.75;;;2.38;100.00
57606;BME280;43430;48.204;11.556;2023-02-15T15:20:40;97091.16;;;2.34;100.00
57606;BME280;43430;48.204;11.556;2023-02-15T15:25:43;97095.38;;;2.17;100.00
57606;BME280;43430;48.204;11.556;2023-02-15T15:31:06;97097.03;;;1.99;100.00
57606;BME280;43430;48.204;11.556;2023-02-15T15:45:26;97122.00;;;1.53;100.00
57606;BME280;43430;48.204;11.556;2023-02-15T15:48:11;97121.84;;;1.54;100.00
57606;BME280;43430;48.204;11.556;2023-02-15T15:50:41;97127.06;;;1.35;100.00
57606;BME280;43430;48.204;11.556;2023-02-15T15:53:18;97129.47;;;1.17;100.00
57606;BME280;43430;48.204;11.556;2023-02-15T15:55:47;97132.19;;;1.06;100.00
57606;BME280;43430;48.204;11.556;2023-02-15T15:58:16;97136.03;;;1.02;100.00
57606;BME280;43430;48.204;11.556;2023-02-15T16:00:47;97136.94;;;0.91;100.00